Time;durP1;ratioP1;P1;durP2;ratioP2;P2;SDS_P1;SDS_P2;PMS_P1;PMS_P2;Temp;Humidity;BMP_temperature;BMP_pressure;BME280_temperature;BME280_humidity;BME280_pressure;Samples;Min_cycle;Max_cycle;Signal;HPM_P1;HPM_P2
2022/08/20 00:00:13;;;;;;;;;;;;;;;;;;5024536;28;19928;-54
2022/08/20 00:02:38;;;;;;;;;;;;;;;;;;5006000;28;20004;-56
2022/08/20 00:05:03;;;;;;;;;;;;;;;;;;5006741;28;19984;-56
2022/08/20 00:07:29;;;;;;;;;;;;;;;;;;5009602;28;20018;-52
2022/08/20 00:09:54;;;;;;;;;;;;;;;;;;5004482;28;20416;-56
2022/08/20 00:12:19;;;;;;;;;;;;;;;;;;5011228;28;19917;-54
2022/08/20 00:14:44;;;;;;;;;;;;;;;;;;5006588;28;20008;-55
2022/08/20 00:17:09;;;;;;;;;;;;;;;;;;5022813;28;19925;-55
2022/08/20 00:19:35;;;;;;;;;;;;;;;;;;5009985;28;20243;-58
2022/08/20 00:22:00;;;;;;;;;;;;;;;;;;5007414;28;19925;-54
2022/08/20 00:24:25;;;;;;;;;;;;;;;;;;5028369;28;19917;-56
2022/08/20 00:26:50;;;;;;;;;;;;;;;;;;5021487;28;19925;-55
2022/08/20 00:29:16;;;;;;;;;;;;;;;;;;5007121;28;20337;-55
2022/08/20 00:31:41;;;;;;;;;;;;;;;;;;5011200;28;20031;-53
2022/08/20 00:34:06;;;;;;;;;;;;;;;;;;5005488;28;19922;-56
2022/08/20 00:36:31;;;;;;;;;;;;;;;;;;5027399;28;19999;-55
2022/08/20 00:38:56;;;;;;;;;;;;;;;;;;5007176;28;20549;-56
2022/08/20 00:41:22;;;;;;;;;;;;;;;;;;5008888;28;19917;-56
2022/08/20 00:43:47;;;;;;;;;;;;;;;;;;5011005;28;19928;-55
2022/08/20 00:46:12;;;;;;;;;;;;;;;;;;5008605;28;19917;-56
2022/08/20 00:48:37;;;;;;;;;;;;;;;;;;5013841;28;19924;-57
2022/08/20 00:51:03;;;;;;;;;;;;;;;;;;5014015;28;19921;-55
2022/08/20 00:53:28;;;;;;;;;;;;;;;;;;5006933;28;19917;-56
2022/08/20 00:55:53;;;;;;;;;;;;;;;;;;5011864;28;20306;-55
2022/08/20 00:58:18;;;;;;;;;;;;;;;;;;5007422;28;19921;-56
2022/08/20 01:00:44;;;;;;;;;;;;;;;;;;5012358;28;19956;-55
2022/08/20 01:03:10;;;;;;;;;;;;;;;;;;5007784;28;19921;-53
2022/08/20 01:05:35;;;;;;;;;;;;;;;;;;5008438;28;19968;-55
2022/08/20 01:08:00;;;;;;;;;;;;;;;;;;5011758;28;20413;-54
2022/08/20 01:10:26;;;;;;;;;;;;;;;;;;5022500;28;20011;-55
2022/08/20 01:12:52;;;;;;;;;;;;;;;;;;5011726;28;20008;-56
2022/08/20 01:15:17;;;;;;;;;;;;;;;;;;5007577;28;19987;-55
2022/08/20 01:17:44;;;;;;;;;;;;;;;;;;5007772;28;19921;-57
2022/08/20 01:20:12;;;;;;;;;;;;;;;;;;5013835;28;19917;-53
2022/08/20 01:25:21;;;;;;;;;;;;;;;;;;5007381;28;20970;-56
2022/08/20 01:27:46;;;;;;;;;;;;;;;;;;5011090;28;20001;-57
2022/08/20 01:30:11;;;;;;;;;;;;;;;;;;5006980;28;19917;-56
2022/08/20 01:32:37;;;;;;;;;;;;;;;;;;5014343;28;19924;-58
2022/08/20 01:35:02;;;;;;;;;;;;;;;;;;5008021;28;20208;-56
2022/08/20 01:37:28;;;;;;;;;;;;;;;;;;5006222;28;19978;-55
2022/08/20 01:39:53;;;;;;;;;;;;;;;;;;5025312;28;19991;-55
2022/08/20 01:42:18;;;;;;;;;;;;;;;;;;5005057;28;20020;-57
2022/08/20 01:44:43;;;;;;;;;;;;;;;;;;5013792;28;19921;-54
2022/08/20 01:47:09;;;;;;;;;;;;;;;;;;5008239;28;19917;-56
2022/08/20 01:49:34;;;;;;;;;;;;;;;;;;5007324;28;19956;-58
2022/08/20 01:51:59;;;;;;;;;;;;;;;;;;5011717;28;20000;-56
2022/08/20 01:54:24;;;;;;;;;;;;;;;;;;5011051;28;19944;-57
2022/08/20 01:56:49;;;;;;;;;;;;;;;;;;5011879;28;20051;-58
2022/08/20 01:59:15;;;;;;;;;;;;;;;;;;5006664;28;19966;-58
2022/08/20 02:01:40;;;;;;;;;;;;;;;;;;5007024;28;19932;-58
2022/08/20 02:04:05;;;;;;;;;;;;;;;;;;5012838;28;20577;-57
2022/08/20 02:06:30;;;;;;;;;;;;;;;;;;5006137;28;19921;-57
2022/08/20 02:08:56;;;;;;;;;;;;;;;;;;5010121;28;19924;-56
2022/08/20 02:11:21;;;;;;;;;;;;;;;;;;5005991;28;19917;-56
2022/08/20 02:13:51;;;;;;;;;;;;;;;;;;5007719;28;19917;-56
2022/08/20 02:16:16;;;;;;;;;;;;;;;;;;5009772;28;20043;-56
2022/08/20 02:18:44;;;;;;;;;;;;;;;;;;5007895;28;19958;-57
2022/08/20 02:21:09;;;;;;;;;;;;;;;;;;5012791;28;19917;-57
2022/08/20 02:23:34;;;;;;;;;;;;;;;;;;5006661;28;19925;-55
2022/08/20 02:26:00;;;;;;;;;;;;;;;;;;5005505;28;20498;-58
2022/08/20 02:28:26;;;;;;;;;;;;;;;;;;5008272;28;19939;-58
2022/08/20 02:30:52;;;;;;;;;;;;;;;;;;5005560;28;20298;-57
2022/08/20 02:33:17;;;;;;;;;;;;;;;;;;5010026;28;19917;-55
2022/08/20 02:35:42;;;;;;;;;;;;;;;;;;5003913;28;20039;-56
2022/08/20 02:38:07;;;;;;;;;;;;;;;;;;5004291;28;20051;-56
2022/08/20 02:40:32;;;;;;;;;;;;;;;;;;5011678;28;19965;-56
2022/08/20 02:42:58;;;;;;;;;;;;;;;;;;5004984;28;20036;-54
2022/08/20 02:45:26;;;;;;;;;;;;;;;;;;5011552;28;20654;-55
2022/08/20 02:47:52;;;;;;;;;;;;;;;;;;5006857;28;19928;-57
2022/08/20 02:50:18;;;;;;;;;;;;;;;;;;5006529;28;19924;-56
2022/08/20 02:52:43;;;;;;;;;;;;;;;;;;5011539;28;19921;-54
2022/08/20 02:55:08;;;;;;;;;;;;;;;;;;5004761;28;20393;-54
2022/08/20 02:57:33;;;;;;;;;;;;;;;;;;5010378;28;20032;-56
2022/08/20 03:00:00;;;;;;;;;;;;;;;;;;5005304;28;19924;-55
2022/08/20 03:02:26;;;;;;;;;;;;;;;;;;5004859;28;19924;-52
2022/08/20 03:04:51;;;;;;;;;;;;;;;;;;5009472;28;20384;-55
2022/08/20 03:07:16;;;;;;;;;;;;;;;;;;5007769;28;20289;-56
2022/08/20 03:09:41;;;;;;;;;;;;;;;;;;5012524;28;20689;-55
2022/08/20 03:12:06;;;;;;;;;;;;;;;;;;5005663;28;19971;-56
2022/08/20 03:14:32;;;;;;;;;;;;;;;;;;5006957;28;20012;-56
2022/08/20 03:16:58;;;;;;;;;;;;;;;;;;5025508;28;19917;-50
2022/08/20 03:19:23;;;;;;;;;;;;;;;;;;5007984;28;19999;-57
2022/08/20 03:21:48;;;;;;;;;;;;;;;;;;5009568;28;19924;-57
2022/08/20 03:24:14;;;;;;;;;;;;;;;;;;5008455;28;19971;-55
2022/08/20 03:26:39;;;;;;;;;;;;;;;;;;5010314;28;19939;-55
2022/08/20 03:29:04;;;;;;;;;;;;;;;;;;5014365;28;20337;-55
2022/08/20 03:31:29;;;;;;;;;;;;;;;;;;5010239;28;19928;-54
2022/08/20 03:33:54;;;;;;;;;;;;;;;;;;5028711;28;19956;-56
2022/08/20 03:36:20;;;;;;;;;;;;;;;;;;5007402;28;19929;-55
2022/08/20 03:38:45;;;;;;;;;;;;;;;;;;5007550;28;19985;-56
2022/08/20 03:41:10;;;;;;;;;;;;;;;;;;5015900;28;19925;-54
2022/08/20 03:43:36;;;;;;;;;;;;;;;;;;5009557;28;19964;-56
2022/08/20 03:46:01;;;;;;;;;;;;;;;;;;5012166;28;20039;-56
2022/08/20 03:48:26;;;;;;;;;;;;;;;;;;5015958;28;19948;-55
2022/08/20 03:50:51;;;;;;;;;;;;;;;;;;5005601;28;20056;-54
2022/08/20 03:53:17;;;;;;;;;;;;;;;;;;5011771;28;19917;-57
2022/08/20 03:55:42;;;;;;;;;;;;;;;;;;5007126;28;20018;-52
2022/08/20 03:58:07;;;;;;;;;;;;;;;;;;5014254;28;19917;-56
2022/08/20 04:00:32;;;;;;;;;;;;;;;;;;5008870;28;20294;-55
2022/08/20 04:02:59;;;;;;;;;;;;;;;;;;5022477;28;19997;-55
2022/08/20 04:05:24;;;;;;;;;;;;;;;;;;5013452;28;19928;-52
2022/08/20 04:07:50;;;;;;;;;;;;;;;;;;5008015;28;20485;-58
2022/08/20 04:10:15;;;;;;;;;;;;;;;;;;5014660;28;19921;-56
2022/08/20 04:12:41;;;;;;;;;;;;;;;;;;5005281;28;19917;-55
2022/08/20 04:15:06;;;;;;;;;;;;;;;;;;5006999;28;20028;-56
2022/08/20 04:17:32;;;;;;;;;;;;;;;;;;5027750;28;20593;-57
2022/08/20 04:19:57;;;;;;;;;;;;;;;;;;5006509;28;20343;-55
2022/08/20 04:22:22;;;;;;;;;;;;;;;;;;5013160;28;20020;-55
2022/08/20 04:24:49;;;;;;;;;;;;;;;;;;5023382;28;19918;-51
2022/08/20 04:27:14;;;;;;;;;;;;;;;;;;5007963;28;20007;-56
2022/08/20 04:29:41;;;;;;;;;;;;;;;;;;5013454;28;19962;-53
2022/08/20 04:32:07;;;;;;;;;;;;;;;;;;5006665;28;19918;-56
2022/08/20 04:34:32;;;;;;;;;;;;;;;;;;5025948;28;20298;-53
2022/08/20 04:36:57;;;;;;;;;;;;;;;;;;5008492;28;20034;-53
2022/08/20 04:39:22;;;;;;;;;;;;;;;;;;5008507;28;19917;-53
2022/08/20 04:41:47;;;;;;;;;;;;;;;;;;5012674;28;20400;-55
2022/08/20 04:44:13;;;;;;;;;;;;;;;;;;5007145;28;19924;-55
2022/08/20 04:46:38;;;;;;;;;;;;;;;;;;5027649;28;19982;-54
2022/08/20 04:49:03;;;;;;;;;;;;;;;;;;5006505;28;20118;-55
2022/08/20 04:51:28;;;;;;;;;;;;;;;;;;5007863;28;19917;-57
2022/08/20 04:53:55;;;;;;;;;;;;;;;;;;5013491;28;19928;-57
2022/08/20 04:56:22;;;;;;;;;;;;;;;;;;5007220;28;20270;-53
2022/08/20 04:58:47;;;;;;;;;;;;;;;;;;5012136;28;20732;-57
2022/08/20 05:01:13;;;;;;;;;;;;;;;;;;5006190;28;19925;-58
2022/08/20 05:03:38;;;;;;;;;;;;;;;;;;5006127;28;20040;-53
2022/08/20 05:06:04;;;;;;;;;;;;;;;;;;5010171;28;19929;-56
2022/08/20 05:08:30;;;;;;;;;;;;;;;;;;5004809;28;19963;-53
2022/08/20 05:10:56;;;;;;;;;;;;;;;;;;5011863;28;19921;-55
2022/08/20 05:13:21;;;;;;;;;;;;;;;;;;5020829;28;19928;-56
2022/08/20 05:15:49;;;;;;;;;;;;;;;;;;5006613;28;19925;-56
2022/08/20 05:18:15;;;;;;;;;;;;;;;;;;5015449;28;19922;-52
2022/08/20 05:20:41;;;;;;;;;;;;;;;;;;5008493;28;19917;-53
2022/08/20 05:23:06;;;;;;;;;;;;;;;;;;5006434;28;19921;-58
2022/08/20 05:25:31;;;;;;;;;;;;;;;;;;5009020;28;19917;-58
2022/08/20 05:27:59;;;;;;;;;;;;;;;;;;5005237;28;19956;-56
2022/08/20 05:30:24;;;;;;;;;;;;;;;;;;5028513;28;19933;-53
2022/08/20 05:32:49;;;;;;;;;;;;;;;;;;5007766;28;19918;-56
2022/08/20 05:35:15;;;;;;;;;;;;;;;;;;5004142;28;19932;-59
2022/08/20 05:37:40;;;;;;;;;;;;;;;;;;5011598;28;19921;-55
2022/08/20 05:40:05;;;;;;;;;;;;;;;;;;5006506;28;20441;-55
2022/08/20 05:42:30;;;;;;;;;;;;;;;;;;5011470;28;19917;-54
2022/08/20 05:44:55;;;;;;;;;;;;;;;;;;5005862;28;19957;-56
2022/08/20 05:47:26;;;;;;;;;;;;;;;;;;5009725;28;19955;-55
2022/08/20 05:49:51;;;;;;;;;;;;;;;;;;5012898;28;20693;-57
2022/08/20 05:52:17;;;;;;;;;;;;;;;;;;5006944;28;20582;-54
2022/08/20 05:54:42;;;;;;;;;;;;;;;;;;5010771;28;19921;-56
2022/08/20 05:57:07;;;;;;;;;;;;;;;;;;5008506;28;20012;-54
2022/08/20 05:59:35;;;;;;;;;;;;;;;;;;5022525;28;20012;-57
2022/08/20 06:02:00;;;;;;;;;;;;;;;;;;5012369;28;19921;-57
2022/08/20 06:04:27;;;;;;;;;;;;;;;;;;5006308;28;19932;-55
2022/08/20 06:06:52;;;;;;;;;;;;;;;;;;5027573;28;20340;-57
2022/08/20 06:09:17;;;;;;;;;;;;;;;;;;5006048;28;20358;-56
2022/08/20 06:11:43;;;;;;;;;;;;;;;;;;5008144;28;19918;-55
2022/08/20 06:14:08;;;;;;;;;;;;;;;;;;5012610;28;19921;-54
2022/08/20 06:16:33;;;;;;;;;;;;;;;;;;5007687;28;20001;-55
2022/08/20 06:18:58;;;;;;;;;;;;;;;;;;5013683;28;19979;-58
2022/08/20 06:21:24;;;;;;;;;;;;;;;;;;5006201;28;19918;-54
2022/08/20 06:23:49;;;;;;;;;;;;;;;;;;5007076;28;19917;-55
2022/08/20 06:26:14;;;;;;;;;;;;;;;;;;5009548;28;19921;-55
2022/08/20 06:28:40;;;;;;;;;;;;;;;;;;5021085;28;20393;-56
2022/08/20 06:31:06;;;;;;;;;;;;;;;;;;5012442;28;20445;-55
2022/08/20 06:33:31;;;;;;;;;;;;;;;;;;5024749;28;19925;-54
2022/08/20 06:35:56;;;;;;;;;;;;;;;;;;5004395;28;19921;-57
2022/08/20 06:38:22;;;;;;;;;;;;;;;;;;5013132;28;19920;-56
2022/08/20 06:40:47;;;;;;;;;;;;;;;;;;5004296;28;20008;-55
2022/08/20 06:43:12;;;;;;;;;;;;;;;;;;5012304;28;19917;-58
2022/08/20 06:45:39;;;;;;;;;;;;;;;;;;5008468;28;19924;-57
2022/08/20 06:48:04;;;;;;;;;;;;;;;;;;5005638;28;19917;-57
2022/08/20 06:50:30;;;;;;;;;;;;;;;;;;5013492;28;19917;-55
2022/08/20 06:52:55;;;;;;;;;;;;;;;;;;5008827;28;20319;-57
2022/08/20 06:55:20;;;;;;;;;;;;;;;;;;5011398;28;19921;-55
2022/08/20 06:57:47;;;;;;;;;;;;;;;;;;5005857;28;19921;-57
2022/08/20 07:00:13;;;;;;;;;;;;;;;;;;5021883;28;19921;-57
2022/08/20 07:02:38;;;;;;;;;;;;;;;;;;5019862;28;20840;-57
2022/08/20 07:05:04;;;;;;;;;;;;;;;;;;5008886;28;20358;-54
2022/08/20 07:07:29;;;;;;;;;;;;;;;;;;5026024;28;20004;-53
2022/08/20 07:09:54;;;;;;;;;;;;;;;;;;5006842;28;19972;-55
2022/08/20 07:12:19;;;;;;;;;;;;;;;;;;5006619;28;20563;-55
2022/08/20 07:14:44;;;;;;;;;;;;;;;;;;5012206;28;20378;-61
2022/08/20 07:17:11;;;;;;;;;;;;;;;;;;5007404;28;19972;-63
2022/08/20 07:19:36;;;;;;;;;;;;;;;;;;5008214;28;19921;-63
2022/08/20 07:22:01;;;;;;;;;;;;;;;;;;5020341;28;19918;-62
2022/08/20 07:24:27;;;;;;;;;;;;;;;;;;5005172;28;20408;-62
2022/08/20 07:26:52;;;;;;;;;;;;;;;;;;5025888;28;19917;-61
2022/08/20 07:29:17;;;;;;;;;;;;;;;;;;5003917;28;19917;-61
2022/08/20 07:34:26;;;;;;;;;;;;;;;;;;5005299;28;19921;-61
2022/08/20 07:36:51;;;;;;;;;;;;;;;;;;5003853;28;19933;-61
2022/08/20 07:39:17;;;;;;;;;;;;;;;;;;5012749;28;19913;-62
2022/08/20 07:41:42;;;;;;;;;;;;;;;;;;5004427;28;20293;-61
2022/08/20 07:44:07;;;;;;;;;;;;;;;;;;5027678;28;19956;-61
2022/08/20 07:46:33;;;;;;;;;;;;;;;;;;5005672;28;20000;-60
2022/08/20 07:48:58;;;;;;;;;;;;;;;;;;5003895;28;20325;-61
2022/08/20 07:51:23;;;;;;;;;;;;;;;;;;5011616;28;19925;-61
2022/08/20 07:53:48;;;;;;;;;;;;;;;;;;5003362;28;20347;-61
2022/08/20 07:56:13;;;;;;;;;;;;;;;;;;5012241;28;19928;-62
2022/08/20 07:58:39;;;;;;;;;;;;;;;;;;5005759;28;19972;-61
2022/08/20 08:01:04;;;;;;;;;;;;;;;;;;5005924;28;20003;-61
2022/08/20 08:03:30;;;;;;;;;;;;;;;;;;5009031;28;19979;-62
2022/08/20 08:05:56;;;;;;;;;;;;;;;;;;5006535;28;19917;-63
2022/08/20 08:08:21;;;;;;;;;;;;;;;;;;5018171;28;19927;-61
2022/08/20 08:10:46;;;;;;;;;;;;;;;;;;5022879;28;19940;-63
2022/08/20 08:13:27;;;;;;;;;;;;;;;;;;5009875;28;19917;-62
2022/08/20 08:15:53;;;;;;;;;;;;;;;;;;5015465;28;19921;-63
2022/08/20 08:18:19;;;;;;;;;;;;;;;;;;5009850;28;19976;-63
2022/08/20 08:20:44;;;;;;;;;;;;;;;;;;5008882;28;19917;-63
2022/08/20 08:23:12;;;;;;;;;;;;;;;;;;5013592;28;20706;-63
2022/08/20 08:25:38;;;;;;;;;;;;;;;;;;5007583;28;19917;-63
2022/08/20 08:28:04;;;;;;;;;;;;;;;;;;5016085;28;19940;-64
2022/08/20 08:30:30;;;;;;;;;;;;;;;;;;5010930;28;20036;-65
2022/08/20 08:35:39;;;;;;;;;;;;;;;;;;5016186;28;20370;-63
2022/08/20 08:38:04;;;;;;;;;;;;;;;;;;5009121;28;19931;-62
2022/08/20 08:40:29;;;;;;;;;;;;;;;;;;5012783;28;19917;-64
2022/08/20 08:42:56;;;;;;;;;;;;;;;;;;5022037;28;20016;-63
2022/08/20 08:45:22;;;;;;;;;;;;;;;;;;5010668;28;19925;-64
2022/08/20 08:47:47;;;;;;;;;;;;;;;;;;5012783;28;19921;-63
2022/08/20 08:50:12;;;;;;;;;;;;;;;;;;5006099;28;19913;-63
2022/08/20 08:52:39;;;;;;;;;;;;;;;;;;5013825;28;19917;-64
2022/08/20 08:55:04;;;;;;;;;;;;;;;;;;5019958;28;20004;-63
2022/08/20 08:57:30;;;;;;;;;;;;;;;;;;5007948;28;20444;-64
2022/08/20 08:59:55;;;;;;;;;;;;;;;;;;5016994;28;19927;-63
2022/08/20 09:02:21;;;;;;;;;;;;;;;;;;5013041;28;20016;-63
2022/08/20 09:04:46;;;;;;;;;;;;;;;;;;5012859;28;19920;-63
2022/08/20 09:07:12;;;;;;;;;;;;;;;;;;5011164;28;20036;-63
2022/08/20 09:09:37;;;;;;;;;;;;;;;;;;5013722;28;19971;-64
2022/08/20 09:12:02;;;;;;;;;;;;;;;;;;5015164;28;19917;-63
2022/08/20 09:14:27;;;;;;;;;;;;;;;;;;5013887;28;19928;-63
2022/08/20 09:16:53;;;;;;;;;;;;;;;;;;5013264;28;20015;-63
2022/08/20 09:19:18;;;;;;;;;;;;;;;;;;5014466;28;19917;-64
2022/08/20 09:21:43;;;;;;;;;;;;;;;;;;5013388;28;19918;-64
2022/08/20 09:24:08;;;;;;;;;;;;;;;;;;5011941;28;19917;-64
2022/08/20 09:26:33;;;;;;;;;;;;;;;;;;5012492;28;19968;-64
2022/08/20 09:28:59;;;;;;;;;;;;;;;;;;5016320;28;19972;-64
2022/08/20 09:31:24;;;;;;;;;;;;;;;;;;5012981;28;20461;-64
2022/08/20 09:33:49;;;;;;;;;;;;;;;;;;5013222;28;20366;-64
2022/08/20 09:36:14;;;;;;;;;;;;;;;;;;5012480;28;19982;-64
2022/08/20 09:38:39;;;;;;;;;;;;;;;;;;5011942;28;20374;-64
2022/08/20 09:41:05;;;;;;;;;;;;;;;;;;5013326;28;20661;-64
2022/08/20 09:43:30;;;;;;;;;;;;;;;;;;5028195;28;20012;-64
2022/08/20 09:45:55;;;;;;;;;;;;;;;;;;5012040;28;19924;-64
2022/08/20 09:48:20;;;;;;;;;;;;;;;;;;5028110;28;19922;-65
2022/08/20 09:50:45;;;;;;;;;;;;;;;;;;5012100;28;20343;-64
2022/08/20 09:53:11;;;;;;;;;;;;;;;;;;5014418;28;19968;-64
2022/08/20 09:55:36;;;;;;;;;;;;;;;;;;5021293;28;19921;-64
2022/08/20 09:58:01;;;;;;;;;;;;;;;;;;5029044;28;20378;-64
2022/08/20 10:00:26;;;;;;;;;;;;;;;;;;5028533;28;19917;-64
2022/08/20 10:02:52;;;;;;;;;;;;;;;;;;5008443;28;19914;-64
2022/08/20 10:05:17;;;;;;;;;;;;;;;;;;5011414;28;19956;-64
2022/08/20 10:07:42;;;;;;;;;;;;;;;;;;5013008;28;20626;-64
2022/08/20 10:10:07;;;;;;;;;;;;;;;;;;5011897;28;20340;-64
2022/08/20 10:12:33;;;;;;;;;;;;;;;;;;5007373;28;21519;-64
2022/08/20 10:14:58;;;;;;;;;;;;;;;;;;5021068;28;19921;-64
2022/08/20 10:17:23;;;;;;;;;;;;;;;;;;5007104;28;19928;-64
2022/08/20 10:19:48;;;;;;;;;;;;;;;;;;5005359;28;20834;-65
2022/08/20 10:22:13;;;;;;;;;;;;;;;;;;5014104;28;19917;-65
2022/08/20 10:24:39;;;;;;;;;;;;;;;;;;5006914;28;19917;-63
2022/08/20 10:27:04;;;;;;;;;;;;;;;;;;5010681;28;19917;-64
2022/08/20 10:29:29;;;;;;;;;;;;;;;;;;5005678;28;19917;-64
2022/08/20 10:31:55;;;;;;;;;;;;;;;;;;5012442;28;19921;-64
2022/08/20 10:34:21;;;;;;;;;;;;;;;;;;5011854;28;19921;-64
2022/08/20 10:36:46;;;;;;;;;;;;;;;;;;5004706;28;19936;-64
2022/08/20 10:39:11;;;;;;;;;;;;;;;;;;5013218;28;19921;-64
2022/08/20 10:41:36;;;;;;;;;;;;;;;;;;5006457;28;19917;-64
2022/08/20 10:44:02;;;;;;;;;;;;;;;;;;5008516;28;19924;-64
2022/08/20 10:46:27;;;;;;;;;;;;;;;;;;5010432;28;20508;-63
2022/08/20 10:48:52;;;;;;;;;;;;;;;;;;5006043;28;20541;-63
2022/08/20 10:51:17;;;;;;;;;;;;;;;;;;5007875;28;20340;-63
2022/08/20 10:53:42;;;;;;;;;;;;;;;;;;5005452;28;19917;-63
2022/08/20 10:56:08;;;;;;;;;;;;;;;;;;5004941;28;20579;-63
2022/08/20 10:58:33;;;;;;;;;;;;;;;;;;5028671;28;20826;-63
2022/08/20 11:00:58;;;;;;;;;;;;;;;;;;5019053;28;20009;-63
2022/08/20 11:03:23;;;;;;;;;;;;;;;;;;5011762;28;19923;-63
2022/08/20 11:05:48;;;;;;;;;;;;;;;;;;5006831;28;19931;-63
2022/08/20 11:08:14;;;;;;;;;;;;;;;;;;5007484;28;19928;-63
2022/08/20 11:10:39;;;;;;;;;;;;;;;;;;5010112;28;19957;-63
2022/08/20 11:13:04;;;;;;;;;;;;;;;;;;5006091;28;19921;-63
2022/08/20 11:15:30;;;;;;;;;;;;;;;;;;5011231;28;20605;-63
2022/08/20 11:17:55;;;;;;;;;;;;;;;;;;5009204;28;19947;-63
2022/08/20 11:20:22;;;;;;;;;;;;;;;;;;5007084;28;20008;-63
2022/08/20 11:22:47;;;;;;;;;;;;;;;;;;5011001;28;19925;-63
2022/08/20 11:25:12;;;;;;;;;;;;;;;;;;5007483;28;19916;-63
2022/08/20 11:27:38;;;;;;;;;;;;;;;;;;5010056;28;19972;-63
2022/08/20 11:30:03;;;;;;;;;;;;;;;;;;5004921;28;19917;-63
2022/08/20 11:32:28;;;;;;;;;;;;;;;;;;5007250;28;20044;-63
2022/08/20 11:34:53;;;;;;;;;;;;;;;;;;5008540;28;19921;-64
2022/08/20 11:37:19;;;;;;;;;;;;;;;;;;5003902;28;20030;-63
2022/08/20 11:39:44;;;;;;;;;;;;;;;;;;5009641;28;20428;-63
2022/08/20 11:42:09;;;;;;;;;;;;;;;;;;5006302;28;19917;-64
2022/08/20 11:44:34;;;;;;;;;;;;;;;;;;5007279;28;20003;-62
2022/08/20 11:47:02;;;;;;;;;;;;;;;;;;5015289;28;19921;-62
2022/08/20 11:49:27;;;;;;;;;;;;;;;;;;5006343;28;19917;-62
2022/08/20 11:51:52;;;;;;;;;;;;;;;;;;5014474;28;20322;-61
2022/08/20 11:54:18;;;;;;;;;;;;;;;;;;5007842;28;20022;-61
2022/08/20 11:56:43;;;;;;;;;;;;;;;;;;5008949;28;20504;-61
2022/08/20 11:59:08;;;;;;;;;;;;;;;;;;5016913;28;20251;-62
2022/08/20 12:01:33;;;;;;;;;;;;;;;;;;5010724;28;20341;-62
2022/08/20 12:03:59;;;;;;;;;;;;;;;;;;5013174;28;19964;-61
2022/08/20 12:06:24;;;;;;;;;;;;;;;;;;5022448;28;19970;-62
2022/08/20 12:08:49;;;;;;;;;;;;;;;;;;5011286;28;19940;-63
2022/08/20 12:11:14;;;;;;;;;;;;;;;;;;5013991;28;20016;-63
2022/08/20 12:13:40;;;;;;;;;;;;;;;;;;5006595;28;19917;-63
2022/08/20 12:16:05;;;;;;;;;;;;;;;;;;5011406;28;19999;-64
2022/08/20 12:18:31;;;;;;;;;;;;;;;;;;5008524;28;19928;-63
2022/08/20 12:20:56;;;;;;;;;;;;;;;;;;5007190;28;19912;-62
2022/08/20 12:23:21;;;;;;;;;;;;;;;;;;5028390;28;19917;-63
2022/08/20 12:25:46;;;;;;;;;;;;;;;;;;5008481;28;19936;-62
2022/08/20 12:28:12;;;;;;;;;;;;;;;;;;5012256;28;19932;-63
2022/08/20 12:30:38;;;;;;;;;;;;;;;;;;5008968;28;19917;-62
2022/08/20 12:33:03;;;;;;;;;;;;;;;;;;5009320;28;19935;-63
2022/08/20 12:35:28;;;;;;;;;;;;;;;;;;5011423;28;19928;-63
2022/08/20 12:37:53;;;;;;;;;;;;;;;;;;5010394;28;19924;-63
2022/08/20 12:40:19;;;;;;;;;;;;;;;;;;5013605;28;20289;-63
2022/08/20 12:42:47;;;;;;;;;;;;;;;;;;5022576;28;19924;-63
2022/08/20 12:45:12;;;;;;;;;;;;;;;;;;5008471;28;19921;-63
2022/08/20 12:47:38;;;;;;;;;;;;;;;;;;5014256;28;19918;-63
2022/08/20 12:50:03;;;;;;;;;;;;;;;;;;5011336;28;19917;-64
2022/08/20 12:52:28;;;;;;;;;;;;;;;;;;5012005;28;19917;-63
2022/08/20 12:54:54;;;;;;;;;;;;;;;;;;5009123;28;19927;-63
2022/08/20 12:57:19;;;;;;;;;;;;;;;;;;5006343;28;19944;-63
2022/08/20 12:59:44;;;;;;;;;;;;;;;;;;5012689;28;20575;-62
2022/08/20 13:02:09;;;;;;;;;;;;;;;;;;5020342;28;19948;-64
2022/08/20 13:04:34;;;;;;;;;;;;;;;;;;5013523;28;19948;-62
2022/08/20 13:07:00;;;;;;;;;;;;;;;;;;5006731;28;20349;-62
2022/08/20 13:09:25;;;;;;;;;;;;;;;;;;5007476;28;20004;-62
2022/08/20 13:11:50;;;;;;;;;;;;;;;;;;5011233;28;19947;-62
2022/08/20 13:14:15;;;;;;;;;;;;;;;;;;5022981;28;20361;-62
2022/08/20 13:16:41;;;;;;;;;;;;;;;;;;5010583;28;19921;-62
2022/08/20 13:19:06;;;;;;;;;;;;;;;;;;5007117;28;19927;-62
2022/08/20 13:21:31;;;;;;;;;;;;;;;;;;5021686;28;20024;-62
2022/08/20 13:23:56;;;;;;;;;;;;;;;;;;5027101;28;20020;-62
2022/08/20 13:26:22;;;;;;;;;;;;;;;;;;5010269;28;19917;-62
2022/08/20 13:28:47;;;;;;;;;;;;;;;;;;5012605;28;19964;-62
2022/08/20 13:31:12;;;;;;;;;;;;;;;;;;5007808;28;19913;-62
2022/08/20 13:33:37;;;;;;;;;;;;;;;;;;5006875;28;19918;-61
2022/08/20 13:36:03;;;;;;;;;;;;;;;;;;4998712;28;20726;-62
2022/08/20 13:38:28;;;;;;;;;;;;;;;;;;4998528;28;20648;-62
2022/08/20 13:40:53;;;;;;;;;;;;;;;;;;5001017;28;19917;-62
2022/08/20 13:43:18;;;;;;;;;;;;;;;;;;5008319;28;19917;-61
2022/08/20 13:45:43;;;;;;;;;;;;;;;;;;5008252;28;19918;-62
2022/08/20 13:48:09;;;;;;;;;;;;;;;;;;5010880;28;19917;-62
2022/08/20 13:50:34;;;;;;;;;;;;;;;;;;5006069;28;20473;-62
2022/08/20 13:52:59;;;;;;;;;;;;;;;;;;5009622;28;20011;-63
2022/08/20 13:55:24;;;;;;;;;;;;;;;;;;5004926;28;20536;-62
2022/08/20 13:57:49;;;;;;;;;;;;;;;;;;5005626;28;20010;-62
2022/08/20 14:00:15;;;;;;;;;;;;;;;;;;5010138;28;19917;-63
2022/08/20 14:02:40;;;;;;;;;;;;;;;;;;5004083;28;19924;-63
2022/08/20 14:05:08;;;;;;;;;;;;;;;;;;5024867;28;19963;-62
2022/08/20 14:07:33;;;;;;;;;;;;;;;;;;5002746;28;19971;-62
2022/08/20 14:09:58;;;;;;;;;;;;;;;;;;5004378;28;19914;-62
2022/08/20 14:12:23;;;;;;;;;;;;;;;;;;5012549;28;20362;-62
2022/08/20 14:14:48;;;;;;;;;;;;;;;;;;5004083;28;19920;-62
2022/08/20 14:17:14;;;;;;;;;;;;;;;;;;5009189;28;20469;-62
2022/08/20 14:19:39;;;;;;;;;;;;;;;;;;5002405;28;20484;-63
2022/08/20 14:22:04;;;;;;;;;;;;;;;;;;5005164;28;19923;-63
2022/08/20 14:24:30;;;;;;;;;;;;;;;;;;5007536;28;19916;-62
2022/08/20 14:26:55;;;;;;;;;;;;;;;;;;5002722;28;19917;-61
2022/08/20 14:29:21;;;;;;;;;;;;;;;;;;5025530;28;20513;-62
2022/08/20 14:31:46;;;;;;;;;;;;;;;;;;5005691;28;19967;-62
2022/08/20 14:34:11;;;;;;;;;;;;;;;;;;5001341;28;19921;-62
2022/08/20 14:36:36;;;;;;;;;;;;;;;;;;5011228;28;19925;-62
2022/08/20 14:39:02;;;;;;;;;;;;;;;;;;5020450;28;19919;-62
2022/08/20 14:41:27;;;;;;;;;;;;;;;;;;5010215;28;20056;-62
2022/08/20 14:43:52;;;;;;;;;;;;;;;;;;5002140;28;21165;-62
2022/08/20 14:46:17;;;;;;;;;;;;;;;;;;5003993;28;20795;-63
2022/08/20 14:48:42;;;;;;;;;;;;;;;;;;5007844;28;20711;-61
2022/08/20 14:51:08;;;;;;;;;;;;;;;;;;5004160;28;19917;-62
2022/08/20 14:53:34;;;;;;;;;;;;;;;;;;5025316;28;19917;-62
2022/08/20 14:55:59;;;;;;;;;;;;;;;;;;5004287;28;20435;-62
2022/08/20 14:58:24;;;;;;;;;;;;;;;;;;5004290;28;19928;-62
2022/08/20 15:00:49;;;;;;;;;;;;;;;;;;5022767;28;19917;-63
2022/08/20 15:03:14;;;;;;;;;;;;;;;;;;5006412;28;20646;-62
2022/08/20 15:05:40;;;;;;;;;;;;;;;;;;5009908;28;20545;-62
2022/08/20 15:08:05;;;;;;;;;;;;;;;;;;5000936;28;20329;-62
2022/08/20 15:10:30;;;;;;;;;;;;;;;;;;5001739;28;19924;-62
2022/08/20 15:12:55;;;;;;;;;;;;;;;;;;5024190;28;19943;-62
2022/08/20 15:15:20;;;;;;;;;;;;;;;;;;5004436;28;19928;-63
2022/08/20 15:17:46;;;;;;;;;;;;;;;;;;5009054;28;19926;-63
2022/08/20 15:20:11;;;;;;;;;;;;;;;;;;5007494;28;20004;-62
2022/08/20 15:22:36;;;;;;;;;;;;;;;;;;5007944;28;19924;-62
2022/08/20 15:25:01;;;;;;;;;;;;;;;;;;5027116;28;19925;-63
2022/08/20 15:27:27;;;;;;;;;;;;;;;;;;5008084;28;19963;-63
2022/08/20 15:29:52;;;;;;;;;;;;;;;;;;5012646;28;20491;-63
2022/08/20 15:32:17;;;;;;;;;;;;;;;;;;5003660;28;20044;-63
2022/08/20 15:34:42;;;;;;;;;;;;;;;;;;5005401;28;19932;-64
2022/08/20 15:37:07;;;;;;;;;;;;;;;;;;5009780;28;19921;-63
2022/08/20 15:39:33;;;;;;;;;;;;;;;;;;5007339;28;19917;-64
2022/08/20 15:41:58;;;;;;;;;;;;;;;;;;5011179;28;20482;-63
2022/08/20 15:44:23;;;;;;;;;;;;;;;;;;5004253;28;19922;-63
2022/08/20 15:46:48;;;;;;;;;;;;;;;;;;5008763;28;19917;-64
2022/08/20 15:49:13;;;;;;;;;;;;;;;;;;5023621;28;19918;-63
2022/08/20 15:51:39;;;;;;;;;;;;;;;;;;5006071;28;19956;-62
2022/08/20 15:54:04;;;;;;;;;;;;;;;;;;5025387;28;19917;-62
2022/08/20 15:56:29;;;;;;;;;;;;;;;;;;5008298;28;19925;-63
2022/08/20 15:58:57;;;;;;;;;;;;;;;;;;5004803;28;20024;-63
2022/08/20 16:01:23;;;;;;;;;;;;;;;;;;5011854;28;19917;-62
2022/08/20 16:03:48;;;;;;;;;;;;;;;;;;5006810;28;19943;-63
2022/08/20 16:06:14;;;;;;;;;;;;;;;;;;5012114;28;20044;-63
2022/08/20 16:08:39;;;;;;;;;;;;;;;;;;5006886;28;20924;-63
2022/08/20 16:11:04;;;;;;;;;;;;;;;;;;5007641;28;20016;-63
2022/08/20 16:13:29;;;;;;;;;;;;;;;;;;5013992;28;20049;-63
2022/08/20 16:15:54;;;;;;;;;;;;;;;;;;5004846;28;19972;-63
2022/08/20 16:18:20;;;;;;;;;;;;;;;;;;5012474;28;19917;-63
2022/08/20 16:20:45;;;;;;;;;;;;;;;;;;5006069;28;20004;-64
2022/08/20 16:23:10;;;;;;;;;;;;;;;;;;5006157;28;20553;-64
2022/08/20 16:25:36;;;;;;;;;;;;;;;;;;5010524;28;19918;-65
2022/08/20 16:28:01;;;;;;;;;;;;;;;;;;5007038;28;19917;-65
2022/08/20 16:30:27;;;;;;;;;;;;;;;;;;5002002;28;19932;-63
2022/08/20 16:32:52;;;;;;;;;;;;;;;;;;4996897;28;19918;-62
2022/08/20 16:35:17;;;;;;;;;;;;;;;;;;5006811;28;19925;-62
2022/08/20 16:37:42;;;;;;;;;;;;;;;;;;5013149;28;19952;-62
2022/08/20 16:40:07;;;;;;;;;;;;;;;;;;5007937;28;19920;-63